Elbow Lake, MN (56531)

4:08 AM CDT on August 28, 2014 (GMT -0500)
Elbow Lake | Change Station
CLOSE
Current Station
Airport
Location: Elbow Lake,
Elevation: 1204 ft
Nearby Weather Stations

Elev 1204 ft 45.99 °N, 95.99 °W | Updated 15 minutes ago

Overcast
Overcast
63 °F
Feels Like 63 °F
N
8
Wind Variable Wind from SE

Today
High -- | Low -- °F
--% Chance of Precip.
Yesterday
High -- | Low -- °F
Precip. -- in
6:39 AM 8:09 PM
Waxing Crescent, 7% visible
Pressure 30.04 in
Visibility 10.0 miles
Clouds Mostly Cloudy 9500 ft
Overcast 11000 ft
Dew Point 59 °F
Humidity 89%
Rainfall 0.00 in
Snow Depth Not available.
UV 0 out of 12
Pollen 10.00 out of 12
Air Quality Not available.
Flu Activity Not available.
METAR KY63 280853Z AUTO 14007KT 10SM BKN095 OVC110 17/15 A3004 RMK AO2 T01700152

More Conditions Fewer Conditions

Pressure 30.04 in
Visibility 10.0 miles
Clouds Mostly Cloudy 9500 ft
Overcast 11000 ft
Dew Point 59 °F
Humidity 89%
Rainfall 0.00 in
Snow Depth Not available.
UV 0 out of 12
Pollen 10.00 out of 12
Air Quality Not available.
Flu Activity Not available.
METAR KY63 280853Z AUTO 14007KT 10SM BKN095 OVC110 17/15 A3004 RMK AO2 T01700152

More Conditions Fewer Conditions

10-Day Weather Forecast

Almanac

Astronomy

Aug. 28, 2014 Rise Set
Actual Time 6:39 AM CDT 8:09 PM CDT
Civil Twilight 6:08 AM CDT 8:40 PM CDT
Nautical Twilight 5:30 AM CDT 9:18 PM CDT
Astronomical Twilight 4:49 AM CDT 9:58 PM CDT
Moon 9:44 AM CDT 9:21 PM CDT
Length of Visible Light 14h 32m
Length of Day
13h 29m
Tomorrow will be 3m 6s shorter.
Waxing Crescent, 7% of the Moon is Illuminated
Today
Waxing Crescent
Sep 2
First Quarter
Sep 8
Full
Sep 15
Last Quarter
Sep 24
New

Today's Extremes

State Highs State Lows

Community

WunderPhotos

Upload Photos

1,747,918 photos uploaded!

Nearby

Snow Depth

Station Depth Elevation
No new snow has been reported.

Earthquake Activity

City Distance Mag. Time & Date
No recent earthquake activity has been reported nearby.
Minimum magnitude displayed is 2.5.

Coastal Water Temperatures

Place Temperature
No Stations Reporting

Nearby Weather Stations